Time;durP1;ratioP1;P1;durP2;ratioP2;P2;SDS_P1;SDS_P2;PMS_P1;PMS_P2;Temp;Humidity;BMP_temperature;BMP_pressure;BME280_temperature;BME280_humidity;BME280_pressure;Samples;Min_cycle;Max_cycle;Signal;HPM_P1;HPM_P2
2021/11/21 00:02:08;;;;;;;44.83;28.00;;;;;;;7.55;100.00;101164.38;5007731;28;20174;-75
2021/11/21 00:04:35;;;;;;;43.97;26.17;;;;;;;7.49;100.00;101161.81;5000197;28;20049;-74
2021/11/21 00:07:02;;;;;;;46.97;28.98;;;;;;;7.58;100.00;101160.09;5003247;28;20049;-75
2021/11/21 00:09:28;;;;;;;45.72;28.67;;;;;;;7.49;100.00;101154.91;5004432;28;20057;-75
2021/11/21 00:11:56;;;;;;;45.80;27.88;;;;;;;7.46;100.00;101148.00;4999718;28;20108;-74
2021/11/21 00:14:23;;;;;;;46.85;27.90;;;;;;;7.55;100.00;101147.16;4996789;28;20116;-74
2021/11/21 00:16:52;;;;;;;48.95;28.35;;;;;;;7.50;100.00;101154.03;5004308;28;20053;-74
2021/11/21 00:19:19;;;;;;;47.70;27.02;;;;;;;7.54;100.00;101157.47;5006067;28;20069;-74
2021/11/21 00:21:45;;;;;;;44.58;27.35;;;;;;;7.54;100.00;101142.84;5003180;28;20791;-75
2021/11/21 00:24:12;;;;;;;45.53;26.83;;;;;;;7.60;100.00;101141.97;5008120;28;20103;-75
2021/11/21 00:26:38;;;;;;;45.53;28.52;;;;;;;7.59;100.00;101141.09;5003133;28;20056;-75
2021/11/21 00:29:05;;;;;;;45.55;27.83;;;;;;;7.59;100.00;101137.66;5003148;28;20096;-73
2021/11/21 00:31:32;;;;;;;45.72;27.83;;;;;;;7.62;100.00;101125.56;5008642;28;20042;-74
2021/11/21 00:33:59;;;;;;;43.47;27.40;;;;;;;7.56;100.00;101128.16;5002707;28;20042;-75
2021/11/21 00:36:25;;;;;;;45.22;27.30;;;;;;;7.50;100.00;101122.13;5000736;28;20056;-75
2021/11/21 00:38:52;;;;;;;49.97;29.20;;;;;;;7.49;100.00;101123.00;4995522;28;20479;-75
2021/11/21 00:41:18;;;;;;;48.25;28.40;;;;;;;7.47;100.00;101118.66;5006626;28;20049;-75
2021/11/21 00:43:45;;;;;;;45.45;27.40;;;;;;;7.53;100.00;101116.97;4997696;28;20105;-75
2021/11/21 00:46:12;;;;;;;46.22;27.55;;;;;;;7.47;100.00;101110.91;5003158;28;20407;-75
2021/11/21 00:48:40;;;;;;;46.63;28.92;;;;;;;7.53;100.00;101109.19;4998066;28;20104;-74
2021/11/21 00:51:07;;;;;;;46.47;29.45;;;;;;;7.49;100.00;101110.03;4995821;28;20515;-75
2021/11/21 00:53:35;;;;;;;53.97;31.70;;;;;;;7.49;100.00;101107.47;5004012;28;20496;-75
2021/11/21 00:56:04;;;;;;;46.17;29.50;;;;;;;7.46;100.00;101103.16;5005226;28;20049;-75
2021/11/21 00:58:32;;;;;;;56.75;32.53;;;;;;;7.41;100.00;101095.38;4997682;28;20057;-76
2021/11/21 01:00:59;;;;;;;58.47;35.25;;;;;;;7.44;100.00;101092.78;5002556;28;20257;-75
2021/11/21 01:03:26;;;;;;;66.22;39.30;;;;;;;7.46;100.00;101092.81;5001703;28;20084;-76
2021/11/21 01:05:56;;;;;;;70.20;41.53;;;;;;;7.50;100.00;101093.66;5000908;28;20049;-74
2021/11/21 01:08:24;;;;;;;77.40;43.95;;;;;;;7.53;100.00;101096.25;5001178;28;20062;-75
2021/11/21 01:10:54;;;;;;;81.20;47.72;;;;;;;7.53;100.00;101093.66;5004801;28;20431;-75
2021/11/21 01:13:23;;;;;;;90.97;49.80;;;;;;;7.51;100.00;101080.69;5004935;28;20050;-75
2021/11/21 01:15:49;;;;;;;92.85;50.33;;;;;;;7.46;100.00;101075.53;4998480;28;20050;-76
2021/11/21 01:18:17;;;;;;;93.65;52.67;;;;;;;7.43;100.00;101075.56;4996729;28;20071;-75
2021/11/21 01:20:45;;;;;;;88.10;50.42;;;;;;;7.44;100.00;101074.66;5004379;28;20053;-75
2021/11/21 01:23:15;;;;;;;89.90;51.55;;;;;;;7.45;100.00;101073.81;4999783;28;20133;-75
2021/11/21 01:25:43;;;;;;;84.80;48.45;;;;;;;7.44;100.00;101073.81;4999256;28;20538;-75
2021/11/21 01:28:09;;;;;;;90.95;48.60;;;;;;;7.46;100.00;101072.09;5000586;28;20045;-76
2021/11/21 01:30:36;;;;;;;83.78;48.05;;;;;;;7.47;100.00;101069.50;4992716;28;20045;-75
2021/11/21 01:33:03;;;;;;;85.63;47.20;;;;;;;7.42;100.00;101068.66;4997494;28;20065;-76
2021/11/21 01:35:31;;;;;;;80.20;46.47;;;;;;;7.41;100.00;101063.44;4998012;28;20046;-76
2021/11/21 01:37:58;;;;;;;80.53;44.47;;;;;;;7.43;100.00;101061.72;4996258;28;20448;-76
2021/11/21 01:40:27;;;;;;;82.38;45.40;;;;;;;7.42;100.00;101063.47;4994287;28;20049;-76
2021/11/21 01:42:55;;;;;;;80.10;44.53;;;;;;;7.40;100.00;101070.38;5001326;28;20050;-75
2021/11/21 01:45:22;;;;;;;74.57;42.78;;;;;;;7.43;100.00;101061.72;5000649;28;20100;-76
2021/11/21 01:47:48;;;;;;;73.85;40.55;;;;;;;7.43;100.00;101057.44;5001864;28;20045;-76
2021/11/21 01:50:18;;;;;;;74.07;41.75;;;;;;;7.42;100.00;101057.41;5006178;28;20046;-75
2021/11/21 01:52:45;;;;;;;68.43;39.53;;;;;;;7.40;100.00;101051.38;4991967;28;20042;-75
2021/11/21 01:55:12;;;;;;;67.43;38.67;;;;;;;7.42;100.00;101047.94;5002004;28;20049;-75
2021/11/21 01:57:40;;;;;;;70.30;39.97;;;;;;;7.45;100.00;101045.34;5003977;28;20057;-75
2021/11/21 02:00:08;;;;;;;65.72;36.80;;;;;;;7.42;100.00;101032.41;5001854;28;20053;-75
2021/11/21 02:02:35;;;;;;;65.25;36.85;;;;;;;7.42;100.00;101039.31;5000160;28;20514;-76
2021/11/21 02:05:02;;;;;;;63.53;34.05;;;;;;;7.41;100.00;101038.44;4998445;28;20047;-76
2021/11/21 02:07:30;;;;;;;59.97;33.85;;;;;;;7.34;100.00;101031.53;4997174;28;20061;-76
2021/11/21 02:09:57;;;;;;;60.17;35.17;;;;;;;7.41;100.00;101027.22;5004126;28;20132;-76
2021/11/21 02:12:23;;;;;;;56.50;32.22;;;;;;;7.37;100.00;101010.84;4996570;28;20045;-76
2021/11/21 02:14:51;;;;;;;53.67;32.03;;;;;;;7.39;100.00;101014.28;5004926;28;20042;-75
2021/11/21 02:17:18;;;;;;;57.55;30.83;;;;;;;7.32;100.00;101010.00;4998649;28;20043;-76
2021/11/21 02:19:44;;;;;;;52.83;29.27;;;;;;;7.29;100.00;101003.09;5001034;28;20050;-76
2021/11/21 02:22:12;;;;;;;57.30;28.85;;;;;;;7.26;100.00;100997.06;4997493;28;20093;-76
2021/11/21 02:24:38;;;;;;;53.90;28.05;;;;;;;7.28;100.00;100996.22;5003904;28;20050;-74
2021/11/21 02:27:05;;;;;;;44.42;26.55;;;;;;;7.30;100.00;100997.03;5003243;28;20410;-76
2021/11/21 02:29:32;;;;;;;47.75;26.17;;;;;;;7.23;100.00;100994.50;4999503;28;20046;-76
2021/11/21 02:31:58;;;;;;;45.10;25.35;;;;;;;7.29;100.00;100991.88;4997748;28;20057;-76
2021/11/21 02:34:25;;;;;;;46.70;24.63;;;;;;;7.27;100.00;100980.66;4998024;28;20093;-76
2021/11/21 02:36:52;;;;;;;44.72;25.95;;;;;;;7.20;100.00;100984.13;5002360;28;20053;-76
2021/11/21 02:39:19;;;;;;;43.15;23.65;;;;;;;7.23;100.00;100973.78;5003545;28;20132;-76
2021/11/21 02:41:46;;;;;;;43.13;24.20;;;;;;;7.25;100.00;100980.69;5000788;28;20084;-75
2021/11/21 02:44:13;;;;;;;44.60;23.92;;;;;;;7.31;100.00;100970.31;5003186;28;20038;-76
2021/11/21 02:46:39;;;;;;;43.65;23.70;;;;;;;7.31;100.00;100964.28;4996817;28;20057;-75
2021/11/21 02:49:05;;;;;;;44.25;24.48;;;;;;;7.25;100.00;100965.16;5005304;28;20117;-76
2021/11/21 02:51:32;;;;;;;45.22;23.90;;;;;;;7.18;100.00;100967.75;5005141;28;20393;-76
2021/11/21 02:53:59;;;;;;;47.60;24.10;;;;;;;7.18;100.00;100960.00;5002940;28;20049;-75
2021/11/21 02:56:27;;;;;;;44.38;23.63;;;;;;;7.21;100.00;100960.84;5003492;28;20438;-76
2021/11/21 02:58:54;;;;;;;45.28;23.17;;;;;;;7.21;100.00;100960.00;4999133;28;20153;-76
2021/11/21 03:01:23;;;;;;;44.08;22.88;;;;;;;7.33;100.00;100949.63;5002811;28;20053;-75
2021/11/21 03:03:50;;;;;;;44.33;22.83;;;;;;;7.25;100.00;100953.94;4998839;28;20090;-75
2021/11/21 03:06:17;;;;;;;47.08;23.65;;;;;;;7.25;100.00;100949.63;5004375;28;20053;-75
2021/11/21 03:08:44;;;;;;;47.60;23.83;;;;;;;7.24;100.00;100947.03;5009774;28;20447;-75
2021/11/21 03:11:27;;;;;;;46.38;24.42;;;;;;;7.27;100.00;100950.50;5004593;28;20049;-75
2021/11/21 03:13:55;;;;;;;43.95;22.55;;;;;;;7.28;100.00;100943.59;5004058;28;20129;-75
2021/11/21 03:16:21;;;;;;;42.25;22.38;;;;;;;7.22;100.00;100949.63;4999280;28;20042;-76
2021/11/21 03:18:48;;;;;;;46.22;24.33;;;;;;;7.31;100.00;100943.59;5005487;28;20104;-75
2021/11/21 03:21:15;;;;;;;38.78;21.58;;;;;;;7.23;100.00;100935.84;5005581;28;20097;-77
2021/11/21 03:23:42;;;;;;;42.22;22.55;;;;;;;7.26;100.00;100929.78;4994110;28;20046;-75
2021/11/21 03:26:09;;;;;;;44.17;23.58;;;;;;;7.29;100.00;100927.19;4998856;28;20061;-75
2021/11/21 03:28:35;;;;;;;43.20;24.08;;;;;;;7.31;100.00;100921.16;5007868;28;20052;-75
2021/11/21 03:31:03;;;;;;;44.55;23.35;;;;;;;7.31;100.00;100917.72;5001983;28;20042;-76
2021/11/21 03:33:30;;;;;;;42.33;22.38;;;;;;;7.30;100.00;100911.66;5004486;28;20526;-76
2021/11/21 03:35:57;;;;;;;43.30;22.23;;;;;;;7.32;100.00;100914.25;5000941;28;20049;-76
2021/11/21 03:38:23;;;;;;;40.38;21.33;;;;;;;7.38;100.00;100921.16;5002329;28;20070;-76
2021/11/21 03:40:50;;;;;;;48.53;23.73;;;;;;;7.30;100.00;100910.81;5008488;28;20136;-76
2021/11/21 03:43:17;;;;;;;42.80;22.35;;;;;;;7.24;100.00;100919.44;5009249;28;20042;-76
2021/11/21 03:45:43;;;;;;;40.88;20.85;;;;;;;7.37;100.00;100909.91;5001158;28;20057;-75
2021/11/21 03:48:11;;;;;;;41.70;21.70;;;;;;;7.24;100.00;100903.94;5001274;28;20042;-75
2021/11/21 03:50:38;;;;;;;43.53;21.83;;;;;;;7.17;100.00;100907.41;4996327;28;20049;-75
2021/11/21 03:53:05;;;;;;;42.35;21.83;;;;;;;7.20;100.00;100906.53;4996126;28;20455;-75
2021/11/21 03:55:32;;;;;;;43.10;22.25;;;;;;;7.24;100.00;100903.94;4993055;28;20042;-75
2021/11/21 03:57:58;;;;;;;38.85;21.05;;;;;;;7.27;100.00;100895.28;5001735;28;20053;-75
2021/11/21 04:00:27;;;;;;;38.70;20.20;;;;;;;7.28;100.00;100897.88;5000611;28;20058;-75
2021/11/21 04:02:55;;;;;;;36.20;20.80;;;;;;;7.32;100.00;100898.75;5002339;28;24141;-75
2021/11/21 04:05:24;;;;;;;36.67;19.10;;;;;;;7.32;100.00;100888.38;4999988;28;20042;-75
2021/11/21 04:07:50;;;;;;;37.90;19.33;;;;;;;7.37;100.00;100883.19;4999873;28;20056;-75
2021/11/21 04:10:17;;;;;;;34.55;18.60;;;;;;;7.37;100.00;100881.44;4997290;28;20063;-75
2021/11/21 04:12:43;;;;;;;38.38;21.05;;;;;;;7.35;100.00;100877.16;5000952;28;20049;-75
2021/11/21 04:15:11;;;;;;;34.22;18.80;;;;;;;7.30;100.00;100877.16;5007357;28;20046;-75
2021/11/21 04:17:38;;;;;;;36.20;18.63;;;;;;;7.28;100.00;100874.59;5003188;28;20558;-75
2021/11/21 04:20:06;;;;;;;34.83;18.73;;;;;;;7.23;100.00;100870.31;5003748;28;20483;-75
2021/11/21 04:22:34;;;;;;;35.17;19.20;;;;;;;7.19;100.00;100869.44;5001732;28;20049;-75
2021/11/21 04:25:01;;;;;;;36.33;18.90;;;;;;;7.22;100.00;100868.59;4998046;28;20048;-75
2021/11/21 04:27:27;;;;;;;36.22;18.67;;;;;;;7.25;100.00;100865.97;5000771;28;20056;-75
2021/11/21 04:29:55;;;;;;;37.47;18.13;;;;;;;7.30;100.00;100870.25;5000632;28;20041;-75
2021/11/21 04:32:21;;;;;;;32.80;18.27;;;;;;;7.29;100.00;100867.69;5000427;28;20483;-75
2021/11/21 04:34:48;;;;;;;33.60;18.30;;;;;;;7.26;100.00;100867.69;5003694;28;20121;-75
2021/11/21 04:37:15;;;;;;;33.88;17.65;;;;;;;7.23;100.00;100865.13;5000483;28;20185;-75
2021/11/21 04:39:42;;;;;;;37.33;18.13;;;;;;;7.12;100.00;100863.44;5004729;28;20049;-77
2021/11/21 04:42:09;;;;;;;34.15;18.73;;;;;;;7.08;100.00;100864.31;4998282;28;20055;-75
2021/11/21 04:44:35;;;;;;;34.78;17.70;;;;;;;7.14;100.00;100860.84;4995574;28;20067;-73
2021/11/21 04:47:02;;;;;;;35.08;18.27;;;;;;;7.23;100.00;100854.78;4998335;28;20112;-75
2021/11/21 04:49:28;;;;;;;36.80;17.95;;;;;;;7.20;100.00;100852.19;5004218;28;20541;-75
2021/11/21 04:51:55;;;;;;;33.88;18.73;;;;;;;7.26;100.00;100852.16;4998951;28;20100;-75
2021/11/21 04:54:25;;;;;;;38.50;19.52;;;;;;;7.29;100.00;100847.84;5004344;28;20054;-75
2021/11/21 04:56:54;;;;;;;34.72;18.50;;;;;;;7.28;100.00;100847.84;4994233;28;20131;-75
2021/11/21 04:59:20;;;;;;;35.13;18.10;;;;;;;7.27;100.00;100840.94;5002363;28;20053;-75
2021/11/21 05:01:48;;;;;;;33.58;17.88;;;;;;;7.24;100.00;100840.94;5000161;28;20088;-75
2021/11/21 05:04:14;;;;;;;36.35;18.27;;;;;;;7.30;100.00;100835.78;5003766;28;20045;-75
2021/11/21 05:06:41;;;;;;;34.90;18.35;;;;;;;7.32;100.00;100836.63;5002883;28;20053;-76
2021/11/21 05:09:08;;;;;;;35.53;18.45;;;;;;;7.36;100.00;100824.53;4999242;28;20050;-77
2021/11/21 05:11:35;;;;;;;39.25;18.30;;;;;;;7.32;100.00;100824.53;5003737;28;20062;-75
2021/11/21 05:14:04;;;;;;;37.58;19.65;;;;;;;7.36;100.00;100817.63;5002406;28;20052;-75
2021/11/21 05:16:31;;;;;;;34.83;18.08;;;;;;;7.32;100.00;100828.88;4999724;28;20067;-74
2021/11/21 05:18:57;;;;;;;39.47;20.25;;;;;;;7.30;100.00;100820.25;4996877;28;21422;-75
2021/11/21 05:21:24;;;;;;;45.85;20.83;;;;;;;7.31;100.00;100819.38;4997459;28;20053;-75
2021/11/21 05:23:50;;;;;;;36.15;19.00;;;;;;;7.34;100.00;100826.28;4992131;28;20042;-74
2021/11/21 05:26:16;;;;;;;46.72;19.85;;;;;;;7.28;100.00;100824.56;4993761;28;20076;-75
2021/11/21 05:28:43;;;;;;;39.30;20.15;;;;;;;7.29;100.00;100821.97;5002507;28;20051;-74
2021/11/21 05:31:11;;;;;;;40.47;20.20;;;;;;;7.32;100.00;100826.28;4999419;28;20620;-75
2021/11/21 05:33:38;;;;;;;42.67;21.10;;;;;;;7.33;100.00;100828.00;5001264;28;20057;-75
2021/11/21 05:36:04;;;;;;;37.00;19.73;;;;;;;7.41;100.00;100828.84;4996415;28;20069;-74
2021/11/21 05:38:31;;;;;;;41.80;21.17;;;;;;;7.31;100.00;100822.81;5000941;28;20042;-74
2021/11/21 05:40:58;;;;;;;40.60;20.38;;;;;;;7.38;100.00;100815.91;5000276;28;20092;-75
2021/11/21 05:43:24;;;;;;;39.72;21.35;;;;;;;7.39;100.00;100815.03;5003149;28;20042;-74
2021/11/21 05:45:50;;;;;;;40.15;21.02;;;;;;;7.41;100.00;100812.44;4999067;28;20050;-74
2021/11/21 05:48:18;;;;;;;47.22;21.52;;;;;;;7.41;100.00;100812.44;5000105;28;20050;-74
2021/11/21 05:50:45;;;;;;;43.45;21.70;;;;;;;7.42;100.00;100799.50;5001997;28;20050;-74
2021/11/21 05:53:11;;;;;;;47.35;21.45;;;;;;;7.23;100.00;100800.47;4994529;28;20128;-74
2021/11/21 05:55:38;;;;;;;45.85;22.02;;;;;;;7.29;100.00;100805.59;4992091;28;20129;-73
2021/11/21 05:58:04;;;;;;;48.63;22.33;;;;;;;7.28;100.00;100799.56;4999874;28;20463;-74
2021/11/21 06:00:31;;;;;;;44.80;22.35;;;;;;;7.33;100.00;100794.38;5002208;28;20050;-74
2021/11/21 06:02:59;;;;;;;46.17;21.50;;;;;;;7.32;100.00;100795.25;4997889;28;20053;-74
2021/11/21 06:05:27;;;;;;;44.70;21.13;;;;;;;7.34;100.00;100795.22;4992701;28;20049;-74
2021/11/21 06:07:53;;;;;;;47.03;22.88;;;;;;;7.22;100.00;100786.63;4999567;28;20063;-74
2021/11/21 06:10:20;;;;;;;43.90;22.13;;;;;;;7.22;100.00;100789.22;5005427;28;20050;-74
2021/11/21 06:12:47;;;;;;;47.08;22.48;;;;;;;7.30;100.00;100791.78;5002683;28;20124;-75
2021/11/21 06:15:14;;;;;;;47.38;22.15;;;;;;;7.36;100.00;100791.75;5000707;28;20077;-74
2021/11/21 06:17:43;;;;;;;46.20;21.23;;;;;;;7.23;100.00;100784.94;5000918;28;20613;-74
2021/11/21 06:20:10;;;;;;;53.47;23.52;;;;;;;7.23;100.00;100785.78;5004636;28;20050;-74
2021/11/21 06:22:38;;;;;;;51.53;23.25;;;;;;;7.31;100.00;100789.19;4998918;28;20061;-76
2021/11/21 06:25:05;;;;;;;51.92;23.25;;;;;;;7.32;100.00;100782.31;4993570;28;21512;-75
2021/11/21 06:27:32;;;;;;;46.70;21.73;;;;;;;7.35;100.00;100776.25;5003658;28;20100;-75
2021/11/21 06:29:59;;;;;;;51.58;22.63;;;;;;;7.32;100.00;100787.47;4999588;28;20038;-75
2021/11/21 06:32:25;;;;;;;49.92;23.23;;;;;;;7.44;100.00;100784.81;5002102;28;20045;-75
2021/11/21 06:34:52;;;;;;;49.13;22.80;;;;;;;7.38;100.00;100784.84;5002219;28;20423;-75
2021/11/21 06:37:18;;;;;;;47.13;22.75;;;;;;;7.41;100.00;100789.13;5001331;28;20503;-74
2021/11/21 06:39:46;;;;;;;49.28;23.10;;;;;;;7.35;100.00;100795.19;4996221;28;20076;-75
2021/11/21 06:42:14;;;;;;;49.38;23.88;;;;;;;7.39;100.00;100789.16;4999897;28;20050;-75
2021/11/21 06:44:41;;;;;;;48.30;21.75;;;;;;;7.37;100.00;100793.47;5000740;28;20124;-75
2021/11/21 06:47:08;;;;;;;48.22;23.27;;;;;;;7.32;100.00;100796.09;5000341;28;20042;-75
2021/11/21 06:49:35;;;;;;;48.15;21.52;;;;;;;7.29;100.00;100790.06;4998096;28;20049;-75
2021/11/21 06:52:01;;;;;;;47.42;21.60;;;;;;;7.35;100.00;100795.19;4999964;28;20046;-75
2021/11/21 06:54:28;;;;;;;48.05;20.80;;;;;;;7.37;100.00;100788.28;5004303;28;20108;-75
2021/11/21 06:56:56;;;;;;;47.50;22.08;;;;;;;7.39;100.00;100793.44;4998036;28;20053;-75
2021/11/21 06:59:22;;;;;;;46.45;21.33;;;;;;;7.35;100.00;100796.94;4997795;28;20051;-75
2021/11/21 07:01:49;;;;;;;45.28;21.58;;;;;;;7.36;100.00;100790.91;4999461;28;20065;-74
2021/11/21 07:04:15;;;;;;;43.08;21.10;;;;;;;7.38;100.00;100794.34;4999719;28;20050;-75
2021/11/21 07:06:43;;;;;;;38.70;18.38;;;;;;;7.38;100.00;100800.38;4995345;28;20058;-75
2021/11/21 07:09:11;;;;;;;41.25;19.40;;;;;;;7.40;100.00;100802.94;4996008;28;20622;-74
2021/11/21 07:11:40;;;;;;;42.90;19.92;;;;;;;7.41;100.00;100799.47;5002214;28;20524;-76
2021/11/21 07:14:11;;;;;;;44.08;19.63;;;;;;;7.40;100.00;100803.81;5000990;28;20045;-75
2021/11/21 07:16:38;;;;;;;40.58;19.60;;;;;;;7.40;100.00;100806.41;4995963;28;20046;-75
2021/11/21 07:19:04;;;;;;;41.85;19.65;;;;;;;7.43;100.00;100802.94;4997004;28;20046;-74
2021/11/21 07:21:31;;;;;;;37.35;19.65;;;;;;;7.42;100.00;100806.38;4999928;28;20104;-76
2021/11/21 07:23:58;;;;;;;45.35;20.02;;;;;;;7.45;100.00;100807.22;4995599;28;20054;-75
2021/11/21 07:26:24;;;;;;;39.00;19.20;;;;;;;7.45;100.00;100807.22;4999591;28;20052;-75
2021/11/21 07:28:52;;;;;;;39.78;19.05;;;;;;;7.45;100.00;100809.81;5000028;28;20112;-75
2021/11/21 07:31:20;;;;;;;41.35;19.58;;;;;;;7.39;100.00;100806.38;4997229;28;20060;-74
2021/11/21 07:33:46;;;;;;;39.65;19.20;;;;;;;7.39;100.00;100802.09;5002948;28;21003;-74
2021/11/21 07:36:13;;;;;;;40.15;18.85;;;;;;;7.40;100.00;100814.16;4996234;28;20042;-76
2021/11/21 07:38:41;;;;;;;37.67;18.25;;;;;;;7.44;100.00;100810.69;4999769;28;20535;-75
2021/11/21 07:41:08;;;;;;;43.42;19.60;;;;;;;7.48;100.00;100814.13;5003035;28;20050;-76
2021/11/21 07:43:34;;;;;;;38.45;18.15;;;;;;;7.51;100.00;100813.25;5004255;28;20108;-77
2021/11/21 07:46:01;;;;;;;39.25;17.15;;;;;;;7.54;100.00;100821.84;4998050;28;20048;-75
2021/11/21 07:48:29;;;;;;;37.10;17.67;;;;;;;7.61;100.00;100822.69;5009299;28;20042;-75
2021/11/21 07:50:56;;;;;;;35.40;16.80;;;;;;;7.62;100.00;100819.25;5003303;28;20046;-75
2021/11/21 07:53:22;;;;;;;33.92;16.17;;;;;;;7.66;100.00;100815.75;4999093;28;20399;-76
2021/11/21 07:55:49;;;;;;;33.80;15.65;;;;;;;7.70;100.00;100826.94;4996195;28;20042;-75
2021/11/21 07:58:15;;;;;;;32.83;16.77;;;;;;;7.71;100.00;100828.66;5003584;28;20124;-75
2021/11/21 08:00:42;;;;;;;37.08;18.02;;;;;;;7.70;100.00;100824.34;5002767;28;20054;-76
2021/11/21 08:03:09;;;;;;;31.38;16.13;;;;;;;7.70;100.00;100822.63;5002008;28;20048;-76
2021/11/21 08:05:37;;;;;;;31.35;15.98;;;;;;;7.70;100.00;100827.81;5003082;28;20091;-74
2021/11/21 08:08:04;;;;;;;35.50;17.20;;;;;;;7.70;100.00;100827.81;4998649;28;20061;-74
2021/11/21 08:10:30;;;;;;;28.98;14.73;;;;;;;7.71;100.00;100829.53;4999995;28;20054;-75
2021/11/21 08:12:57;;;;;;;29.30;15.48;;;;;;;7.71;100.00;100821.78;5000340;28;20524;-75
2021/11/21 08:15:23;;;;;;;29.98;15.02;;;;;;;7.78;100.00;100826.03;5001545;28;20546;-76
2021/11/21 08:17:50;;;;;;;30.67;15.63;;;;;;;7.76;100.00;100830.34;5009774;28;20426;-75
2021/11/21 08:20:17;;;;;;;32.20;16.38;;;;;;;7.76;100.00;100822.59;5002424;28;20104;-74
2021/11/21 08:22:44;;;;;;;27.65;15.80;;;;;;;7.81;100.00;100824.31;5002694;28;20100;-74
2021/11/21 08:25:12;;;;;;;31.02;15.25;;;;;;;7.84;100.00;100822.53;4999453;28;20515;-75
2021/11/21 08:27:39;;;;;;;25.83;14.73;;;;;;;7.87;100.00;100824.25;5003277;28;20496;-75
2021/11/21 08:30:08;;;;;;;30.60;15.68;;;;;;;7.90;100.00;100829.41;5006166;28;20060;-75
2021/11/21 08:32:34;;;;;;;28.50;15.63;;;;;;;7.95;100.00;100827.63;5000952;28;20066;-75
2021/11/21 08:35:01;;;;;;;31.05;16.15;;;;;;;7.97;100.00;100831.09;4998089;28;20471;-76
2021/11/21 08:37:27;;;;;;;30.85;15.90;;;;;;;7.99;100.00;100838.84;5004003;28;20045;-76
2021/11/21 08:39:55;;;;;;;32.53;16.48;;;;;;;8.04;100.00;100837.94;5007560;28;20054;-76
2021/11/21 08:42:22;;;;;;;29.10;15.20;;;;;;;8.16;100.00;100841.31;5006430;28;20050;-75
2021/11/21 08:44:48;;;;;;;30.27;16.10;;;;;;;8.15;100.00;100835.28;5002879;28;20105;-75
2021/11/21 08:47:15;;;;;;;29.73;15.93;;;;;;;8.17;100.00;100836.13;4998158;28;20050;-76
2021/11/21 08:49:42;;;;;;;28.23;14.10;;;;;;;8.17;100.00;100838.72;4995878;28;20085;-75
2021/11/21 08:52:09;;;;;;;33.75;17.42;;;;;;;8.19;100.00;100836.97;5005829;28;20057;-75
2021/11/21 08:54:38;;;;;;;32.33;16.85;;;;;;;8.21;100.00;100845.59;5000973;28;20120;-75
2021/11/21 08:57:06;;;;;;;28.00;15.48;;;;;;;8.24;100.00;100842.09;4997574;28;20049;-76
2021/11/21 08:59:33;;;;;;;30.63;15.60;;;;;;;8.26;100.00;100840.38;5000129;28;20073;-75
2021/11/21 09:02:00;;;;;;;30.55;15.93;;;;;;;8.30;100.00;100846.38;4999955;28;20478;-75
2021/11/21 09:04:26;;;;;;;30.63;15.20;;;;;;;8.35;100.00;100842.03;5001460;28;20535;-75
2021/11/21 09:06:53;;;;;;;29.70;15.48;;;;;;;8.40;100.00;100841.13;5000271;28;20055;-76
2021/11/21 09:09:19;;;;;;;31.77;15.40;;;;;;;8.49;100.00;100839.34;5001400;28;20049;-75
2021/11/21 09:11:46;;;;;;;30.08;15.75;;;;;;;8.59;100.00;100846.19;5002911;28;20048;-76
2021/11/21 09:14:14;;;;;;;30.25;15.50;;;;;;;8.60;100.00;100840.13;4999797;28;20107;-76
2021/11/21 09:16:41;;;;;;;28.17;15.07;;;;;;;8.63;100.00;100850.47;5001943;28;20506;-75
2021/11/21 09:19:07;;;;;;;25.63;15.20;;;;;;;8.69;100.00;100852.13;5001809;28;20056;-75
2021/11/21 09:21:34;;;;;;;27.85;15.57;;;;;;;8.80;100.00;100850.28;4998757;28;20057;-74
2021/11/21 09:24:01;;;;;;;29.25;15.60;;;;;;;8.90;100.00;100840.69;4997614;28;20806;-75
2021/11/21 09:26:29;;;;;;;28.08;15.38;;;;;;;8.96;100.00;100839.75;4998338;28;20049;-75
2021/11/21 09:28:55;;;;;;;27.55;14.48;;;;;;;9.02;100.00;100850.06;5002811;28;20100;-75
2021/11/21 09:31:24;;;;;;;26.13;14.73;;;;;;;9.02;100.00;100848.34;5003564;28;20042;-75
2021/11/21 09:33:50;;;;;;;28.55;14.95;;;;;;;9.06;100.00;100846.56;5000713;28;20063;-73
2021/11/21 09:36:17;;;;;;;27.98;14.95;;;;;;;9.05;100.00;100851.75;4994291;28;20046;-74
2021/11/21 09:38:44;;;;;;;26.77;13.85;;;;;;;9.05;100.00;100846.56;4995857;28;20454;-75
2021/11/21 09:41:11;;;;;;;27.95;14.18;;;;;;;9.04;100.00;100845.72;5000916;28;20058;-74
2021/11/21 09:43:37;;;;;;;26.58;13.57;;;;;;;9.03;100.00;100852.63;5000043;28;20050;-74
2021/11/21 09:46:05;;;;;;;27.70;13.63;;;;;;;9.00;100.00;100860.47;5006331;28;20423;-75
2021/11/21 09:48:34;;;;;;;26.15;14.52;;;;;;;8.94;100.00;100859.66;5001945;28;20068;-75
2021/11/21 09:51:01;;;;;;;25.73;14.52;;;;;;;8.89;100.00;100859.72;4995932;28;20088;-75
2021/11/21 09:53:27;;;;;;;27.83;14.77;;;;;;;8.91;100.00;100855.38;5004143;28;20061;-74
2021/11/21 09:55:55;;;;;;;27.23;14.07;;;;;;;8.82;100.00;100858.06;5000469;28;20096;-75
2021/11/21 09:58:22;;;;;;;26.90;13.68;;;;;;;8.88;100.00;100873.56;4994474;28;20585;-75
2021/11/21 10:00:48;;;;;;;26.08;13.90;;;;;;;8.92;100.00;100870.06;5001066;28;20085;-75
2021/11/21 10:03:18;;;;;;;31.20;15.00;;;;;;;8.90;100.00;100870.94;5001458;28;20053;-75
2021/11/21 10:05:47;;;;;;;27.10;13.95;;;;;;;8.89;100.00;100872.69;5001190;28;20050;-74
2021/11/21 10:08:17;;;;;;;26.27;13.45;;;;;;;8.92;100.00;100867.47;4998017;28;20050;-76
2021/11/21 10:10:46;;;;;;;25.55;13.77;;;;;;;8.86;100.00;100875.31;4998938;28;20073;-75
2021/11/21 10:13:34;;;;;;;28.60;15.48;;;;;;;8.88;100.00;100878.75;5001950;28;20053;-75
2021/11/21 10:16:28;;;;;;;24.85;13.93;;;;;;;8.95;100.00;100876.97;4998721;28;20049;-76
2021/11/21 10:18:57;;;;;;;28.42;14.25;;;;;;;8.99;100.00;100876.03;5001727;28;20148;-75
2021/11/21 10:21:27;;;;;;;29.08;13.02;;;;;;;9.05;100.00;100868.19;4999178;28;20107;-76
2021/11/21 10:24:20;;;;;;;23.13;12.18;;;;;;;9.15;100.00;100868.94;4996667;28;20050;-74
2021/11/21 10:26:46;;;;;;;28.45;13.30;;;;;;;9.15;100.00;100867.22;4992979;28;20511;-74
2021/11/21 10:29:30;;;;;;;26.27;15.15;;;;;;;9.16;100.00;100874.13;5002486;28;20526;-74
2021/11/21 10:31:57;;;;;;;29.42;14.48;;;;;;;9.23;100.00;100866.28;4997496;28;20072;-73
2021/11/21 10:34:24;;;;;;;24.23;13.18;;;;;;;9.22;100.00;100867.16;4998022;28;20049;-74
2021/11/21 10:36:52;;;;;;;28.38;13.50;;;;;;;9.24;100.00;100863.66;4995760;28;20046;-73
2021/11/21 10:39:26;;;;;;;25.20;13.60;;;;;;;9.31;100.00;100861.84;4999029;28;20125;-73
2021/11/21 10:41:56;;;;;;;24.98;12.02;;;;;;;9.40;100.00;100855.69;4997852;28;20053;-73
2021/11/21 10:44:23;;;;;;;23.33;11.70;;;;;;;9.43;100.00;100855.66;4999995;28;20463;-74
2021/11/21 10:46:53;;;;;;;23.98;11.05;;;;;;;9.43;100.00;100858.25;4999620;28;20038;-74
2021/11/21 10:49:29;;;;;;;23.55;10.77;;;;;;;9.52;100.00;100855.53;4999514;28;20151;-74
2021/11/21 10:52:10;;;;;;;20.17;9.60;;;;;;;9.41;100.00;100849.63;4996953;28;24004;-74
2021/11/21 10:54:41;;;;;;;30.88;15.13;;;;;;;9.57;100.00;100852.88;5002626;28;20047;-75
2021/11/21 10:57:11;;;;;;;24.58;9.77;;;;;;;9.57;100.00;100853.72;4997051;28;20124;-74
2021/11/21 10:59:47;;;;;;;18.02;9.18;;;;;;;9.55;100.00;100849.44;4996170;28;20510;-75
2021/11/21 11:02:16;;;;;;;20.42;9.23;;;;;;;9.46;100.00;100863.41;4998977;28;20415;-73
2021/11/21 11:05:00;;;;;;;23.55;7.72;;;;;;;9.40;100.00;100859.13;5000760;28;20050;-71
2021/11/21 11:07:31;;;;;;;22.88;8.90;;;;;;;9.39;100.00;100854.81;4996730;28;20050;-73
2021/11/21 11:09:58;;;;;;;22.60;8.35;;;;;;;9.31;99.86;100857.53;4998664;28;20078;-73
2021/11/21 11:12:26;;;;;;;16.98;6.90;;;;;;;9.41;100.00;100857.41;5004484;28;20049;-74